Time;durP1;ratioP1;P1;durP2;ratioP2;P2;SDS_P1;SDS_P2;PMS_P1;PMS_P2;Temp;Humidity;BMP_temperature;BMP_pressure;BME280_temperature;BME280_humidity;BME280_pressure;Samples;Min_cycle;Max_cycle;Signal;HPM_P1;HPM_P2
2022/04/24 00:01:11;;;;;;;3.42;3.13;;;12.60;95.40;;;;;;5097080;28;20392;-30
2022/04/24 00:03:36;;;;;;;4.38;3.42;;;12.70;95.40;;;;;;5088536;28;20064;-32
2022/04/24 00:06:02;;;;;;;4.78;3.67;;;12.70;95.60;;;;;;5094378;28;20020;-35
2022/04/24 00:08:28;;;;;;;8.05;3.92;;;12.60;95.60;;;;;;5093684;28;20084;-28
2022/04/24 00:10:53;;;;;;;6.97;3.50;;;12.60;95.60;;;;;;5091194;28;20040;-32
2022/04/24 00:13:19;;;;;;;4.75;3.55;;;12.50;95.90;;;;;;5090340;28;20492;-31
2022/04/24 00:15:45;;;;;;;5.63;3.42;;;12.50;96.10;;;;;;5092284;28;20018;-32
2022/04/24 00:18:11;;;;;;;3.70;3.38;;;12.40;96.10;;;;;;5090224;28;20020;-33
2022/04/24 00:20:36;;;;;;;4.43;3.58;;;12.40;96.10;;;;;;5091572;28;20413;-31
2022/04/24 00:23:02;;;;;;;3.85;2.92;;;12.30;96.20;;;;;;5092716;28;20032;-29
2022/04/24 00:25:28;;;;;;;5.55;3.38;;;12.30;96.20;;;;;;5096557;28;20472;-32
2022/04/24 00:27:54;;;;;;;3.97;3.55;;;12.30;96.20;;;;;;5113247;28;20046;-34
2022/04/24 00:30:19;;;;;;;4.35;3.95;;;12.20;96.40;;;;;;5095539;28;20028;-31
2022/04/24 00:32:45;;;;;;;4.72;3.90;;;12.20;96.40;;;;;;5093790;28;20107;-34
2022/04/24 00:35:10;;;;;;;5.07;3.80;;;12.20;96.50;;;;;;5089825;28;20089;-33
2022/04/24 00:37:36;;;;;;;10.02;3.88;;;12.10;96.50;;;;;;5100762;28;20476;-31
2022/04/24 00:40:02;;;;;;;5.50;3.80;;;12.10;96.70;;;;;;5091659;28;20032;-31
2022/04/24 00:42:29;;;;;;;5.97;3.90;;;12.00;96.80;;;;;;5085404;28;20028;-32
2022/04/24 00:44:55;;;;;;;5.13;3.85;;;12.10;96.80;;;;;;5093300;28;20071;-33
2022/04/24 00:47:23;;;;;;;5.35;3.92;;;12.00;97.00;;;;;;5091638;28;20043;-33
2022/04/24 00:49:49;;;;;;;5.43;3.88;;;11.90;97.00;;;;;;5092616;28;20028;-31
2022/04/24 00:52:15;;;;;;;4.10;3.60;;;11.90;97.10;;;;;;5089363;28;20035;-37
2022/04/24 00:54:41;;;;;;;5.68;3.67;;;11.90;97.20;;;;;;5094927;28;20594;-30
2022/04/24 00:57:08;;;;;;;8.20;4.22;;;11.80;97.40;;;;;;5094253;28;20032;-35
2022/04/24 00:59:34;;;;;;;6.72;3.95;;;11.70;97.50;;;;;;5096311;28;20032;-29
2022/04/24 01:02:03;;;;;;;6.22;4.00;;;11.70;97.70;;;;;;5094710;28;20488;-33
2022/04/24 01:04:28;;;;;;;8.85;4.55;;;11.70;97.70;;;;;;5092602;28;20502;-32
2022/04/24 01:06:54;;;;;;;5.40;4.18;;;11.70;97.80;;;;;;5094096;28;20036;-36
2022/04/24 01:09:22;;;;;;;6.38;4.25;;;11.70;98.00;;;;;;5093944;28;20043;-29
2022/04/24 01:11:53;;;;;;;5.50;4.25;;;11.50;98.10;;;;;;5095841;28;20013;-30
2022/04/24 01:14:21;;;;;;;4.80;4.05;;;11.50;98.30;;;;;;5095050;28;20476;-30
2022/04/24 01:16:47;;;;;;;5.75;4.32;;;11.50;98.40;;;;;;5095322;28;20024;-34
2022/04/24 01:19:13;;;;;;;7.25;4.88;;;11.40;98.50;;;;;;5092451;28;20039;-32
2022/04/24 01:21:44;;;;;;;9.35;4.82;;;11.40;98.70;;;;;;5094013;28;20495;-31
2022/04/24 01:24:11;;;;;;;10.52;4.80;;;11.40;98.90;;;;;;5094448;28;20110;-31
2022/04/24 01:26:37;;;;;;;7.70;3.97;;;11.40;99.10;;;;;;5095758;28;20412;-36
2022/04/24 01:29:04;;;;;;;7.10;4.78;;;11.40;99.30;;;;;;5095912;28;20024;-29
2022/04/24 01:31:30;;;;;;;10.52;5.03;;;11.40;99.40;;;;;;5094887;28;20459;-31
2022/04/24 01:33:55;;;;;;;9.23;5.82;;;11.40;99.50;;;;;;5093130;28;20036;-32
2022/04/24 01:36:21;;;;;;;7.93;4.95;;;11.40;99.60;;;;;;5091898;28;20062;-31
2022/04/24 01:38:47;;;;;;;8.10;5.75;;;11.40;99.80;;;;;;5103043;28;20375;-35
2022/04/24 01:41:13;;;;;;;6.85;5.63;;;11.50;99.90;;;;;;5103125;28;20036;-36
2022/04/24 01:43:38;;;;;;;6.95;5.03;;;11.40;99.90;;;;;;5091916;28;20016;-32
2022/04/24 01:46:05;;;;;;;8.45;5.75;;;11.50;99.90;;;;;;5083460;28;20384;-32
2022/04/24 01:48:35;;;;;;;8.35;5.97;;;11.40;99.90;;;;;;5095339;28;20032;-28
2022/04/24 01:51:05;;;;;;;15.90;6.70;;;11.40;99.90;;;;;;5095288;28;20061;-34
2022/04/24 01:53:31;;;;;;;8.00;5.38;;;11.30;99.90;;;;;;5093044;28;20119;-33
2022/04/24 01:55:58;;;;;;;7.10;5.53;;;11.30;99.90;;;;;;5093401;28;20028;-36
2022/04/24 01:58:24;;;;;;;8.48;5.57;;;11.30;99.90;;;;;;5094055;28;20032;-29
2022/04/24 02:00:51;;;;;;;7.03;5.35;;;11.20;99.90;;;;;;5108011;28;20062;-30
2022/04/24 02:03:16;;;;;;;8.40;5.32;;;11.20;99.90;;;;;;5091337;28;20024;-29
2022/04/24 02:05:42;;;;;;;12.50;6.22;;;11.10;99.90;;;;;;5093099;28;20077;-35
2022/04/24 02:08:08;;;;;;;7.47;5.57;;;11.00;99.90;;;;;;5093677;28;20556;-31
2022/04/24 02:10:33;;;;;;;10.93;6.47;;;11.00;99.90;;;;;;5093179;28;20071;-33
2022/04/24 02:12:59;;;;;;;8.27;6.15;;;10.90;99.90;;;;;;5092953;28;20032;-30
2022/04/24 02:15:25;;;;;;;9.90;6.20;;;10.90;99.90;;;;;;5092289;28;20024;-32
2022/04/24 02:17:50;;;;;;;8.40;6.32;;;10.90;99.90;;;;;;5094015;28;20019;-30
2022/04/24 02:20:16;;;;;;;7.78;5.55;;;10.80;99.90;;;;;;5094297;28;20020;-30
2022/04/24 02:22:41;;;;;;;10.02;6.00;;;10.80;99.90;;;;;;5093161;28;20020;-30
2022/04/24 02:25:07;;;;;;;13.02;6.93;;;10.80;99.90;;;;;;5094436;28;20028;-32
2022/04/24 02:27:34;;;;;;;8.15;5.85;;;10.70;99.90;;;;;;5109002;28;20027;-31
2022/04/24 02:30:00;;;;;;;10.05;6.40;;;10.60;99.90;;;;;;5098210;28;20107;-31
2022/04/24 02:32:25;;;;;;;10.23;5.75;;;10.50;99.90;;;;;;5093554;28;20198;-29
2022/04/24 02:34:51;;;;;;;8.70;6.30;;;10.40;99.90;;;;;;5093250;28;20488;-30
2022/04/24 02:37:17;;;;;;;12.10;8.18;;;10.40;99.90;;;;;;5109817;28;20480;-34
2022/04/24 02:39:43;;;;;;;11.23;7.45;;;10.30;99.90;;;;;;5094193;28;20080;-39
2022/04/24 02:42:09;;;;;;;12.40;7.65;;;10.30;99.90;;;;;;5092681;28;20038;-28
2022/04/24 02:44:34;;;;;;;13.70;6.50;;;10.30;99.90;;;;;;5094164;28;20026;-29
2022/04/24 02:47:01;;;;;;;8.93;6.55;;;10.20;99.90;;;;;;5104216;28;20028;-33
2022/04/24 02:49:26;;;;;;;12.93;7.47;;;10.20;99.90;;;;;;5091855;28;20116;-33
2022/04/24 02:51:52;;;;;;;10.07;6.47;;;10.20;99.90;;;;;;5093054;28;20078;-31
2022/04/24 02:54:17;;;;;;;9.93;6.20;;;10.20;99.90;;;;;;5094110;28;20027;-32
2022/04/24 02:56:43;;;;;;;11.63;6.18;;;10.20;99.90;;;;;;5103719;28;20099;-29
2022/04/24 02:59:09;;;;;;;12.73;7.05;;;10.20;99.90;;;;;;5113046;28;20119;-32
2022/04/24 03:01:35;;;;;;;10.13;6.38;;;10.10;99.90;;;;;;5092499;28;20024;-32
2022/04/24 03:04:01;;;;;;;9.10;6.38;;;10.20;99.90;;;;;;5094180;28;20069;-32
2022/04/24 03:06:26;;;;;;;9.48;5.97;;;10.20;99.90;;;;;;5092496;28;20396;-32
2022/04/24 03:08:52;;;;;;;9.70;6.40;;;10.20;99.90;;;;;;5093226;28;20028;-32
2022/04/24 03:11:18;;;;;;;13.48;5.95;;;10.20;99.90;;;;;;5092095;28;20103;-33
2022/04/24 03:13:43;;;;;;;10.35;6.88;;;10.20;99.90;;;;;;5093557;28;20036;-29
2022/04/24 03:16:09;;;;;;;9.05;5.28;;;10.20;99.90;;;;;;5091007;28;20081;-31
2022/04/24 03:18:35;;;;;;;7.80;5.85;;;10.20;99.90;;;;;;5092577;28;20028;-31
2022/04/24 03:21:01;;;;;;;11.00;6.22;;;10.20;99.90;;;;;;5091341;28;20031;-33
2022/04/24 03:23:27;;;;;;;8.40;5.47;;;10.20;99.90;;;;;;5093582;28;20023;-31
2022/04/24 03:25:52;;;;;;;9.52;5.38;;;10.20;99.90;;;;;;5093560;28;20495;-30
2022/04/24 03:28:18;;;;;;;7.75;5.63;;;10.20;99.90;;;;;;5101744;28;20019;-30
2022/04/24 03:30:44;;;;;;;7.47;5.18;;;10.20;99.90;;;;;;5103686;28;20031;-30
2022/04/24 03:33:10;;;;;;;11.30;6.22;;;10.20;99.90;;;;;;5092800;28;20145;-29
2022/04/24 03:35:36;;;;;;;10.35;5.70;;;10.20;99.90;;;;;;5093294;28;20055;-30
2022/04/24 03:38:02;;;;;;;8.05;5.05;;;10.20;99.90;;;;;;5099188;28;20020;-29
2022/04/24 03:40:28;;;;;;;10.90;5.95;;;10.10;99.90;;;;;;5097541;28;20487;-31
2022/04/24 03:42:54;;;;;;;8.60;5.35;;;10.10;99.90;;;;;;5092332;28;20035;-30
2022/04/24 03:45:20;;;;;;;7.78;5.40;;;10.10;99.90;;;;;;5091375;28;20047;-30
2022/04/24 03:47:47;;;;;;;8.30;5.32;;;10.10;99.90;;;;;;5094134;28;20472;-30
2022/04/24 03:50:13;;;;;;;7.95;5.10;;;10.10;99.90;;;;;;5091479;28;20032;-30
2022/04/24 03:52:39;;;;;;;9.48;5.03;;;10.00;99.90;;;;;;5092121;28;20028;-29
2022/04/24 03:55:05;;;;;;;8.88;5.13;;;9.90;99.90;;;;;;5093115;28;20075;-33
2022/04/24 03:57:31;;;;;;;10.43;4.90;;;9.90;99.90;;;;;;5092182;28;20032;-40
2022/04/24 03:59:57;;;;;;;8.63;5.18;;;10.00;99.90;;;;;;5092853;28;20023;-33
2022/04/24 04:02:23;;;;;;;7.93;4.70;;;10.00;99.90;;;;;;5091826;28;20488;-29
2022/04/24 04:04:49;;;;;;;12.10;4.90;;;10.00;99.90;;;;;;5091576;28;20518;-34
2022/04/24 04:07:14;;;;;;;6.75;4.97;;;9.90;99.90;;;;;;5092134;28;20028;-33
2022/04/24 04:09:40;;;;;;;6.28;4.55;;;9.90;99.90;;;;;;5093238;28;20081;-33
2022/04/24 04:12:06;;;;;;;6.03;4.50;;;9.90;99.90;;;;;;5095105;28;20033;-31
2022/04/24 04:14:32;;;;;;;7.55;5.05;;;9.90;99.90;;;;;;5072760;28;20017;-28
2022/04/24 04:16:58;;;;;;;11.32;5.00;;;9.90;99.90;;;;;;5087267;28;20030;-29
2022/04/24 04:19:24;;;;;;;7.85;4.72;;;9.80;99.90;;;;;;5092985;28;20395;-29
2022/04/24 04:21:49;;;;;;;6.57;4.82;;;9.80;99.90;;;;;;5073497;28;20028;-31
2022/04/24 04:24:15;;;;;;;7.60;4.85;;;9.80;99.90;;;;;;5092244;28;20036;-29
2022/04/24 04:26:41;;;;;;;7.95;4.43;;;9.70;99.90;;;;;;5092020;28;20407;-34
2022/04/24 04:29:07;;;;;;;5.97;4.57;;;9.70;99.90;;;;;;5093288;28;20078;-32
2022/04/24 04:31:33;;;;;;;7.20;4.43;;;9.70;99.90;;;;;;5108344;28;20093;-32
2022/04/24 04:33:58;;;;;;;7.28;4.97;;;9.80;99.90;;;;;;5096626;28;20071;-33
2022/04/24 04:36:24;;;;;;;6.68;4.90;;;9.80;99.90;;;;;;5095731;28;20036;-30
2022/04/24 04:38:49;;;;;;;6.45;4.43;;;9.80;99.90;;;;;;5094439;28;20401;-32
2022/04/24 04:41:15;;;;;;;6.57;4.80;;;9.80;99.90;;;;;;5096406;28;20103;-33
2022/04/24 04:43:41;;;;;;;7.80;5.00;;;9.60;99.90;;;;;;5095735;28;20028;-31
2022/04/24 04:46:06;;;;;;;10.85;4.93;;;9.70;99.90;;;;;;5095588;28;20028;-36
2022/04/24 04:48:32;;;;;;;6.05;4.03;;;9.60;99.90;;;;;;5095419;28;20028;-33
2022/04/24 04:50:57;;;;;;;6.50;4.70;;;9.60;99.90;;;;;;5095690;28;20035;-30
2022/04/24 04:53:23;;;;;;;8.05;4.57;;;9.60;99.90;;;;;;5108729;28;20098;-32
2022/04/24 04:55:49;;;;;;;7.88;4.50;;;9.70;99.90;;;;;;5096405;28;20102;-36
2022/04/24 04:58:15;;;;;;;7.88;4.53;;;9.70;99.90;;;;;;5096575;28;20140;-32
2022/04/24 05:00:41;;;;;;;6.38;4.50;;;9.60;99.90;;;;;;5093869;28;20032;-33
2022/04/24 05:03:07;;;;;;;5.97;4.65;;;9.70;99.90;;;;;;5106476;28;20062;-31
2022/04/24 05:05:33;;;;;;;7.97;4.47;;;9.60;99.90;;;;;;5097686;28;20032;-30
2022/04/24 05:07:58;;;;;;;6.82;4.15;;;9.60;99.90;;;;;;5094830;28;20039;-29
2022/04/24 05:10:24;;;;;;;5.53;4.05;;;9.70;99.90;;;;;;5095986;28;20028;-31
2022/04/24 05:12:50;;;;;;;8.70;4.40;;;9.80;99.90;;;;;;5104356;28;20031;-30
2022/04/24 05:15:16;;;;;;;5.72;4.15;;;9.70;99.90;;;;;;5095915;28;20061;-30
2022/04/24 05:17:43;;;;;;;5.80;4.05;;;9.70;99.90;;;;;;5096206;28;20468;-33
2022/04/24 05:20:11;;;;;;;5.35;3.95;;;9.70;99.90;;;;;;5098150;28;20491;-29
2022/04/24 05:22:40;;;;;;;6.93;4.00;;;9.70;99.90;;;;;;5114814;28;20084;-28
2022/04/24 05:25:09;;;;;;;9.48;3.85;;;9.80;99.90;;;;;;5094789;28;20028;-33
2022/04/24 05:27:38;;;;;;;7.88;4.30;;;9.90;99.90;;;;;;5095141;28;20024;-29
2022/04/24 05:30:05;;;;;;;8.63;4.30;;;9.80;99.90;;;;;;5104477;28;20031;-29
2022/04/24 05:32:42;;;;;;;5.25;4.15;;;9.90;99.90;;;;;;5104162;28;20028;-31
2022/04/24 05:35:08;;;;;;;5.60;3.88;;;10.00;99.90;;;;;;5094473;28;20119;-29
2022/04/24 05:37:34;;;;;;;7.88;3.92;;;10.00;99.90;;;;;;5095208;28;20367;-30
2022/04/24 05:40:00;;;;;;;4.95;3.75;;;10.00;99.90;;;;;;5093737;28;20024;-33
2022/04/24 05:42:25;;;;;;;5.72;4.03;;;10.10;99.90;;;;;;5094471;28;20032;-31
2022/04/24 05:44:51;;;;;;;6.55;4.18;;;10.10;99.90;;;;;;5094416;28;20032;-31
2022/04/24 05:47:17;;;;;;;4.07;3.67;;;10.10;99.90;;;;;;5094005;28;20052;-28
2022/04/24 05:49:42;;;;;;;6.35;4.20;;;10.10;99.90;;;;;;5098969;28;20066;-32
2022/04/24 05:52:08;;;;;;;7.10;3.90;;;10.10;99.90;;;;;;5115942;28;20047;-29
2022/04/24 05:54:33;;;;;;;6.80;3.97;;;10.20;99.90;;;;;;5103131;28;20070;-30
2022/04/24 05:56:59;;;;;;;7.22;3.75;;;10.20;99.90;;;;;;5095306;28;20028;-32
2022/04/24 05:59:25;;;;;;;5.93;3.97;;;10.30;99.90;;;;;;5096977;28;20024;-31
2022/04/24 06:01:50;;;;;;;6.40;4.22;;;10.30;99.90;;;;;;5094800;28;20616;-30
2022/04/24 06:04:16;;;;;;;4.90;3.53;;;10.30;99.90;;;;;;5097004;28;20024;-29
2022/04/24 06:06:41;;;;;;;4.30;3.38;;;10.40;99.90;;;;;;5095048;28;20073;-29
2022/04/24 06:09:07;;;;;;;6.97;4.05;;;10.40;99.90;;;;;;5093987;28;20024;-33
2022/04/24 06:11:32;;;;;;;3.85;3.28;;;10.50;99.90;;;;;;5115044;28;20420;-31
2022/04/24 06:13:58;;;;;;;7.07;3.97;;;10.70;99.90;;;;;;5087612;28;20165;-31
2022/04/24 06:16:24;;;;;;;6.70;3.67;;;10.70;99.90;;;;;;5098262;28;20102;-34
2022/04/24 06:18:49;;;;;;;5.13;3.53;;;10.80;99.90;;;;;;5102505;28;20137;-29
2022/04/24 06:21:15;;;;;;;5.75;3.45;;;10.80;99.90;;;;;;5093078;28;20460;-37
2022/04/24 06:23:40;;;;;;;4.30;3.65;;;10.90;99.90;;;;;;5105772;28;20031;-28
2022/04/24 06:26:06;;;;;;;7.90;3.72;;;11.00;99.90;;;;;;5093216;28;20498;-29
2022/04/24 06:28:31;;;;;;;6.60;3.60;;;11.00;99.90;;;;;;5093715;28;20028;-29
2022/04/24 06:30:57;;;;;;;5.78;4.18;;;11.00;99.90;;;;;;5093746;28;20060;-30
2022/04/24 06:33:23;;;;;;;9.55;4.13;;;11.10;99.90;;;;;;5093092;28;20529;-31
2022/04/24 06:35:49;;;;;;;10.68;4.38;;;11.20;99.90;;;;;;5086697;28;20404;-29
2022/04/24 06:38:16;;;;;;;7.35;3.67;;;11.20;99.90;;;;;;5094286;28;20020;-33
2022/04/24 06:40:41;;;;;;;5.38;3.97;;;11.20;99.90;;;;;;5094995;28;20031;-33
2022/04/24 06:43:08;;;;;;;7.07;3.63;;;11.30;99.90;;;;;;5093316;28;20400;-30
2022/04/24 06:45:38;;;;;;;6.20;4.07;;;11.30;99.90;;;;;;5099480;28;20544;-31
2022/04/24 06:48:06;;;;;;;10.00;3.95;;;11.40;99.90;;;;;;5109806;28;20043;-29
2022/04/24 06:50:33;;;;;;;4.63;3.83;;;11.50;99.90;;;;;;5091454;28;20075;-31
2022/04/24 06:53:00;;;;;;;4.27;3.87;;;11.60;99.90;;;;;;5092352;28;20483;-28
2022/04/24 06:55:27;;;;;;;5.70;4.27;;;11.70;99.90;;;;;;5091791;28;20016;-31
2022/04/24 06:57:53;;;;;;;2.87;2.67;;;11.80;99.90;;;;;;5096239;28;20023;-33
2022/04/24 07:00:20;;;;;;;5.97;4.07;;;12.00;99.90;;;;;;5093304;28;20020;-30
2022/04/24 07:02:49;;;;;;;5.10;3.25;;;11.90;99.90;;;;;;5092037;28;20100;-36
2022/04/24 07:05:16;;;;;;;5.75;3.72;;;12.00;99.90;;;;;;5090219;28;20020;-32
2022/04/24 07:07:42;;;;;;;5.43;3.60;;;12.00;99.90;;;;;;5090644;28;20066;-33
2022/04/24 07:10:09;;;;;;;4.63;3.83;;;11.90;99.90;;;;;;5091177;28;20102;-29
2022/04/24 07:12:51;;;;;;;5.68;3.90;;;12.00;99.90;;;;;;5093728;28;20012;-29
2022/04/24 07:15:18;;;;;;;5.47;3.15;;;12.20;99.90;;;;;;5100712;28;20099;-29
2022/04/24 07:17:45;;;;;;;5.95;3.47;;;12.40;99.90;;;;;;5103844;28;20026;-29
2022/04/24 07:20:13;;;;;;;5.40;3.60;;;12.40;99.90;;;;;;5097831;28;20019;-30
2022/04/24 07:22:45;;;;;;;5.55;3.88;;;12.40;99.90;;;;;;5090385;28;20022;-37
2022/04/24 07:25:14;;;;;;;5.32;3.80;;;12.40;99.90;;;;;;5091411;28;20338;-28
2022/04/24 07:27:40;;;;;;;4.88;3.90;;;12.50;99.90;;;;;;5093467;28;20531;-29
2022/04/24 07:30:13;;;;;;;7.63;4.25;;;12.50;99.90;;;;;;5092440;28;20071;-36
2022/04/24 07:32:42;;;;;;;5.03;3.72;;;12.60;99.90;;;;;;5089605;28;20085;-30
2022/04/24 07:35:14;;;;;;;4.05;3.60;;;12.80;99.90;;;;;;5091801;28;20047;-32
2022/04/24 07:37:41;;;;;;;5.50;3.72;;;13.00;99.80;;;;;;5092685;28;20028;-39
2022/04/24 07:40:10;;;;;;;11.60;4.03;;;13.10;99.60;;;;;;5096931;28;20021;-34
2022/04/24 07:42:50;;;;;;;4.55;3.60;;;13.30;99.40;;;;;;5101442;28;20031;-35
2022/04/24 07:45:21;;;;;;;5.28;3.65;;;13.30;99.30;;;;;;5091938;28;20078;-32
2022/04/24 07:47:48;;;;;;;6.68;4.00;;;13.40;99.20;;;;;;5092612;28;20110;-36
2022/04/24 07:50:15;;;;;;;11.68;4.30;;;13.40;99.30;;;;;;5092452;28;20381;-30
2022/04/24 07:52:41;;;;;;;6.47;3.72;;;13.50;99.40;;;;;;5093503;28;20379;-29
2022/04/24 07:55:07;;;;;;;4.78;4.05;;;13.50;99.30;;;;;;5090838;28;20024;-29
2022/04/24 07:57:33;;;;;;;8.25;4.05;;;13.60;99.70;;;;;;5092997;28;20039;-29
2022/04/24 07:59:58;;;;;;;5.72;3.72;;;13.60;99.80;;;;;;5092365;28;20028;-30
2022/04/24 08:02:24;;;;;;;4.43;4.00;;;13.80;99.40;;;;;;5093052;28;20468;-30
2022/04/24 08:04:50;;;;;;;8.25;4.00;;;14.00;99.60;;;;;;5095018;28;20024;-30
2022/04/24 08:07:17;;;;;;;4.18;3.53;;;14.10;99.40;;;;;;5095479;28;20031;-32
2022/04/24 08:09:43;;;;;;;5.28;4.20;;;14.40;98.90;;;;;;5094778;28;20021;-28
2022/04/24 08:12:09;;;;;;;8.05;4.25;;;14.30;98.70;;;;;;5094168;28;20020;-34
2022/04/24 08:14:34;;;;;;;5.35;3.65;;;14.40;98.60;;;;;;5090663;28;20150;-29
2022/04/24 08:17:00;;;;;;;3.78;3.47;;;14.40;98.50;;;;;;5094933;28;20028;-30
2022/04/24 08:19:26;;;;;;;8.98;4.00;;;14.50;98.70;;;;;;5091950;28;20032;-29
2022/04/24 08:21:51;;;;;;;6.75;3.80;;;14.60;98.80;;;;;;5096160;28;20028;-28
2022/04/24 08:24:17;;;;;;;4.45;3.53;;;14.60;98.70;;;;;;5095972;28;20032;-31
2022/04/24 08:26:42;;;;;;;6.18;3.85;;;14.60;99.10;;;;;;5099725;27;20020;-31
2022/04/24 08:29:08;;;;;;;6.00;4.55;;;14.70;98.60;;;;;;5095349;28;20484;-29
2022/04/24 08:31:34;;;;;;;5.80;4.05;;;14.70;99.10;;;;;;5093004;28;20036;-29
2022/04/24 08:33:59;;;;;;;4.95;3.38;;;14.80;98.40;;;;;;5096611;28;20472;-35
2022/04/24 08:36:25;;;;;;;6.10;3.95;;;15.00;98.30;;;;;;5095975;28;20023;-30
2022/04/24 08:38:50;;;;;;;4.32;3.92;;;15.20;97.80;;;;;;5093855;28;20407;-29
2022/04/24 08:41:23;;;;;;;4.50;3.88;;;15.20;98.00;;;;;;5090783;28;20054;-31
2022/04/24 08:43:49;;;;;;;5.88;4.40;;;15.30;97.90;;;;;;5096565;28;20024;-30
2022/04/24 08:46:14;;;;;;;5.00;3.92;;;15.30;98.30;;;;;;5091363;28;20065;-30
2022/04/24 08:48:45;;;;;;;4.72;4.10;;;15.30;97.10;;;;;;5095458;28;20030;-31
2022/04/24 08:51:11;;;;;;;9.63;3.85;;;15.30;97.40;;;;;;5095713;28;20031;-34
2022/04/24 08:53:39;;;;;;;4.72;3.83;;;15.40;97.50;;;;;;5092846;28;20084;-38
2022/04/24 08:56:05;;;;;;;5.38;4.60;;;15.40;97.10;;;;;;5096199;28;20028;-41
2022/04/24 08:58:31;;;;;;;5.47;4.00;;;15.40;98.20;;;;;;5094656;28;20028;-30
2022/04/24 09:00:57;;;;;;;8.40;4.07;;;15.70;97.80;;;;;;5091349;28;20043;-35
2022/04/24 09:03:23;;;;;;;6.38;4.65;;;15.80;96.50;;;;;;5094897;28;20036;-33
2022/04/24 09:05:48;;;;;;;6.93;4.10;;;15.80;96.90;;;;;;5095964;28;20035;-29
2022/04/24 09:08:14;;;;;;;4.85;4.20;;;16.00;96.40;;;;;;5096326;28;20031;-32
2022/04/24 09:10:51;;;;;;;4.72;3.38;;;16.10;97.00;;;;;;5094133;28;20042;-33
2022/04/24 09:13:26;;;;;;;6.30;4.35;;;16.40;95.90;;;;;;5102270;28;20041;-30
2022/04/24 09:15:59;;;;;;;7.15;4.10;;;16.50;95.90;;;;;;5100366;28;20061;-30
2022/04/24 09:18:39;;;;;;;6.03;4.22;;;16.40;96.00;;;;;;5098461;28;20016;-35
2022/04/24 09:21:04;;;;;;;4.43;3.85;;;16.60;95.80;;;;;;5096673;28;20098;-31
2022/04/24 09:23:35;;;;;;;6.95;4.40;;;17.20;95.30;;;;;;5104852;28;20116;-31
2022/04/24 09:26:01;;;;;;;8.70;3.60;;;17.30;95.00;;;;;;5103450;28;20501;-29
2022/04/24 09:28:36;;;;;;;5.40;4.00;;;17.60;95.60;;;;;;5100440;28;20027;-32
2022/04/24 09:31:03;;;;;;;5.28;3.97;;;17.60;95.10;;;;;;5097946;28;20024;-29
2022/04/24 09:33:38;;;;;;;2.92;2.40;;;18.10;94.40;;;;;;5094423;28;20020;-35
2022/04/24 09:36:05;;;;;;;4.05;3.33;;;18.20;93.60;;;;;;5094884;28;20052;-32
2022/04/24 09:38:30;;;;;;;6.07;4.03;;;18.10;93.60;;;;;;5110202;28;20028;-30
2022/04/24 09:40:56;;;;;;;5.53;3.63;;;18.40;93.30;;;;;;5099337;28;20028;-34
2022/04/24 09:43:22;;;;;;;7.05;3.97;;;18.40;93.70;;;;;;5093607;28;20047;-37
2022/04/24 09:45:50;;;;;;;6.72;3.83;;;18.00;93.70;;;;;;5091197;28;20024;-37
2022/04/24 09:48:18;;;;;;;5.05;4.03;;;17.70;93.90;;;;;;5098551;28;20332;-30
2022/04/24 09:50:44;;;;;;;4.75;3.72;;;17.70;93.70;;;;;;5114599;28;20040;-34
2022/04/24 09:53:19;;;;;;;5.82;3.30;;;17.80;93.90;;;;;;5107008;28;20030;-30
2022/04/24 09:55:45;;;;;;;6.25;3.97;;;17.90;94.00;;;;;;5109372;28;20020;-29
2022/04/24 09:58:15;;;;;;;8.17;3.80;;;17.80;95.00;;;;;;5100644;28;20039;-32
2022/04/24 10:00:42;;;;;;;11.38;3.80;;;17.90;94.40;;;;;;5110223;28;20035;-32
2022/04/24 10:03:09;;;;;;;4.07;3.67;;;18.10;93.70;;;;;;5088738;28;20475;-33
2022/04/24 10:05:38;;;;;;;5.57;4.00;;;18.60;93.40;;;;;;5090941;28;20514;-40
2022/04/24 10:08:06;;;;;;;4.30;3.90;;;18.70;93.10;;;;;;5094517;28;20027;-30
2022/04/24 10:10:31;;;;;;;9.02;4.07;;;18.10;93.50;;;;;;5100036;28;20027;-33
2022/04/24 10:13:01;;;;;;;5.00;3.75;;;17.70;95.00;;;;;;5097656;28;20511;-35
2022/04/24 10:15:28;;;;;;;5.55;4.60;;;17.70;94.80;;;;;;5101832;28;20035;-31
2022/04/24 10:18:16;;;;;;;5.47;4.00;;;17.60;94.70;;;;;;5097882;28;20031;-40
2022/04/24 10:20:56;;;;;;;5.22;4.15;;;17.70;93.90;;;;;;5100501;28;20019;-31
2022/04/24 10:23:29;;;;;;;11.65;4.22;;;17.60;94.40;;;;;;5093422;28;20028;-35
2022/04/24 10:25:55;;;;;;;4.95;4.00;;;17.90;93.90;;;;;;5100001;28;20492;-31
2022/04/24 10:28:21;;;;;;;4.32;3.45;;;18.30;94.00;;;;;;5091995;28;20025;-34
2022/04/24 10:31:01;;;;;;;5.22;3.50;;;18.80;93.20;;;;;;5098399;28;20484;-30
2022/04/24 10:33:28;;;;;;;5.88;4.30;;;18.60;93.80;;;;;;5097856;28;20396;-33
2022/04/24 10:35:59;;;;;;;;;;;18.40;94.00;;;;;;5100713;28;20060;-34
2022/04/24 10:38:28;;;;;;;7.38;4.35;;;18.50;93.40;;;;;;5097966;28;20279;-36
2022/04/24 10:40:57;;;;;;;6.60;3.83;;;17.80;94.70;;;;;;5088758;28;20099;-36
2022/04/24 10:43:24;;;;;;;4.50;4.10;;;18.00;94.00;;;;;;5092304;28;20024;-28
2022/04/24 10:45:51;;;;;;;6.18;3.72;;;18.10;94.00;;;;;;5100119;28;20058;-32
2022/04/24 10:48:17;;;;;;;6.38;4.40;;;18.00;93.80;;;;;;5101036;28;20023;-31
2022/04/24 10:50:52;;;;;;;5.80;4.40;;;18.00;94.80;;;;;;5095555;28;20030;-30
2022/04/24 10:53:18;;;;;;;9.85;4.82;;;18.00;95.10;;;;;;5098132;28;20055;-30
2022/04/24 10:55:44;;;;;;;5.18;3.97;;;18.00;93.90;;;;;;5099680;28;20051;-32
2022/04/24 10:58:10;;;;;;;7.00;4.57;;;17.60;94.20;;;;;;5099971;28;20494;-31
2022/04/24 11:00:38;;;;;;;7.82;4.43;;;17.70;94.00;;;;;;5092159;28;20032;-31
2022/04/24 11:03:14;;;;;;;;;;;17.70;94.10;;;;;;5097849;28;20024;-36
2022/04/24 11:05:43;;;;;;;7.47;3.75;;;17.90;94.40;;;;;;5098109;28;20409;-30
2022/04/24 11:08:11;;;;;;;9.00;4.25;;;17.90;94.20;;;;;;5098296;28;20051;-29
2022/04/24 11:10:38;;;;;;;;;;;18.00;94.00;;;;;;5094473;28;20168;-30
2022/04/24 11:13:04;;;;;;;5.53;3.70;;;18.10;93.80;;;;;;5102197;28;19908;-36
2022/04/24 11:15:29;;;;;;;6.00;4.30;;;18.30;93.20;;;;;;5097456;28;20115;-33
2022/04/24 11:17:55;;;;;;;4.00;3.53;;;18.30;93.10;;;;;;5100708;28;20015;-35
2022/04/24 11:20:27;;;;;;;5.63;3.60;;;18.50;93.40;;;;;;5098748;28;20032;-33
2022/04/24 11:22:55;;;;;;;5.65;4.15;;;18.50;91.60;;;;;;5099740;28;20499;-31
2022/04/24 11:25:24;;;;;;;5.22;4.00;;;18.60;92.00;;;;;;5100922;28;20494;-30
2022/04/24 11:28:00;;;;;;;6.68;3.83;;;18.60;92.50;;;;;;5099812;28;20485;-35
2022/04/24 11:30:37;;;;;;;4.60;4.15;;;18.70;92.20;;;;;;5097623;28;20126;-30
2022/04/24 11:33:08;;;;;;;6.78;3.50;;;18.80;92.20;;;;;;5098710;28;20012;-32
2022/04/24 11:35:37;;;;;;;9.68;4.10;;;19.00;92.40;;;;;;5094429;28;20160;-31
2022/04/24 11:38:08;;;;;;;5.32;3.65;;;19.20;91.90;;;;;;5111880;28;20091;-30
2022/04/24 11:40:36;;;;;;;9.07;4.00;;;19.20;91.70;;;;;;5097551;28;20032;-33
2022/04/24 11:43:06;;;;;;;4.28;3.47;;;19.00;92.30;;;;;;5108412;28;20016;-34
2022/04/24 11:51:16;;;;;;;4.97;3.55;;;19.10;92.30;;;;;;5100851;28;20093;-30
2022/04/24 11:53:43;;;;;;;6.80;3.85;;;19.30;91.90;;;;;;5106369;28;20039;-31
2022/04/24 11:56:11;;;;;;;5.45;3.50;;;19.10;91.80;;;;;;5097191;28;20042;-31
2022/04/24 11:58:38;;;;;;;7.88;3.60;;;18.80;92.20;;;;;;5091740;28;20036;-29
2022/04/24 12:01:07;;;;;;;9.05;4.03;;;18.20;92.50;;;;;;5091620;28;20169;-30
2022/04/24 12:03:34;;;;;;;5.88;3.60;;;18.20;92.40;;;;;;5092974;28;20017;-29
2022/04/24 12:06:02;;;;;;;5.65;2.92;;;18.30;92.00;;;;;;5093151;28;20498;-30
2022/04/24 12:08:46;;;;;;;;;;;18.50;92.20;;;;;;5096168;28;20027;-30
2022/04/24 12:11:26;;;;;;;6.25;3.53;;;18.90;91.70;;;;;;5089621;28;19951;-29
2022/04/24 12:14:02;;;;;;;4.65;3.10;;;19.00;91.40;;;;;;5092000;28;20357;-31
2022/04/24 12:16:28;;;;;;;4.35;2.72;;;18.90;91.40;;;;;;5086803;28;20480;-32
2022/04/24 12:18:58;;;;;;;4.47;2.70;;;19.10;91.30;;;;;;5086221;28;20035;-30
2022/04/24 12:21:24;;;;;;;4.88;3.05;;;19.10;91.30;;;;;;5099342;28;20028;-27
2022/04/24 12:23:55;;;;;;;3.42;3.13;;;19.00;89.90;;;;;;5091117;28;20093;-31
2022/04/24 12:26:21;;;;;;;5.43;3.33;;;18.60;90.40;;;;;;5085373;28;20042;-34
2022/04/24 12:28:48;;;;;;;3.63;2.53;;;18.70;90.60;;;;;;5104855;28;20483;-29
2022/04/24 12:31:40;;;;;;;9.43;2.67;;;18.90;90.80;;;;;;5100723;28;21470;-29
2022/04/24 12:34:05;;;;;;;4.18;2.47;;;19.20;90.40;;;;;;5088069;28;20774;-28
2022/04/24 12:36:31;;;;;;;2.50;2.28;;;19.50;89.90;;;;;;5094414;28;20028;-32
2022/04/24 12:39:04;;;;;;;2.33;2.15;;;19.50;89.50;;;;;;5105815;28;20499;-30
2022/04/24 12:41:30;;;;;;;3.97;2.33;;;19.40;90.10;;;;;;5075852;28;20491;-28
2022/04/24 12:44:00;;;;;;;3.45;2.63;;;19.60;87.60;;;;;;5088593;28;20039;-31
2022/04/24 12:46:27;;;;;;;5.18;2.20;;;19.50;87.70;;;;;;5094844;28;20027;-31
2022/04/24 12:48:55;;;;;;;5.90;2.50;;;19.40;88.60;;;;;;5091991;28;20095;-28
2022/04/24 12:51:23;;;;;;;3.13;1.98;;;19.40;89.20;;;;;;5094088;28;20105;-30
2022/04/24 12:53:50;;;;;;;2.80;2.08;;;19.50;88.10;;;;;;5108655;28;20016;-30